Aérodrome :
LOGIN :

S'inscrire | Disclaimer

   EN    FR    IT 

 










Légende :    VFR   VFR Marginal   IFR   IFR Intensif   IFR Très Intensif
Visi : 
Plafond : 
>= 8 km
>= 3000ft
5 à 8 km
1000 à 3000 ft
1500m à 5 km
500 à 1000 ft
800 à 1500m
200 à 500 ft
< 800m
< 200 ft
Symboles :   Orages  Brouillard  Fortes neiges  Fortes précipitations  Vent > 20 kt
SIGMETs :   Divers  Orages  Givrage  Turbulence  Onde Orograph.  Cendres Volcan.







- Altitude de l'aérodrome : 290 ft
- Code IATA : LAI
- Voir les cartes d'approche


LFRO - Lannion

DERNIER METAR :
  • 180730Z AUTO 19005KT 9999 -RA NSC 07/06 Q1016 TEMPO 4000 RA OVC009 SCT020TCU

METARs EXPIRÉS :
  • 180700Z AUTO 21006KT 9999 -RA NSC 07/06 Q1016 TEMPO 4000 RA OVC009 SCT020TCU
  • 180630Z AUTO 21004KT 9999 -RA FEW043 OVC058 08/07 Q1016 TEMPO 4000 RA OVC009 SCT020TCU
  • 180600Z AUTO 20004KT 9999 -RA NSC 08/07 Q1016 TEMPO 4000 RA OVC009 SCT020TCU
  • 180530Z AUTO 21005KT 9999 -RA FEW043 OVC058 08/07 Q1016
  • 180500Z AUTO 20006KT 170V230 9000 -RA BKN046 OVC060 09/07 Q1016

TAF TAF LFRO
Valide du 18 à 06h jusqu'au 19 à 06h UTC


180500Z 1806/1906 19010KT 9999 FEW015 BKN040
TEMPO 1806/1813 4000 RA OVC009 SCT020TCU
PROB40
TEMPO 1813/1820 4000 SHRA BKN015TCU
BECMG 1816/1819 30005KT
BECMG 1820/1823 24006KT FEW020
PROB30
TEMPO 1903/1906 3000 MIFG
Pas de NOTAMs connus pour ce terrain.



MET'MAP, la Météo Aéronautique d'un coup d'oeil ! - Copyright ORBIFLY Décembre 2007 - Disclaimer

ORBIFLY MET'MAP TEAM :

Programmation & Développement : Alexandra Zaïnal
Conception & Développement : Baudouin d'Aumeries
Co-Programmation & Développement : Marc-Olivier Méhu
Soutien technique & logistique : Manuel Goepfert

Contact : metmap@orbifly.com




SOURCES & CREDITS :

   NOAA